sensor_id;sensor_type;location;lat;lon;timestamp;pressure;altitude;pressure_sealevel;temperature;humidity
60611;BME280;46439;51.164;13.572;2023-09-12T00:00:57;99463.52;;;20.74;100.00
60611;BME280;46439;51.164;13.572;2023-09-12T00:03:25;99468.34;;;20.73;100.00
60611;BME280;46439;51.164;13.572;2023-09-12T00:05:55;99469.40;;;20.71;100.00
60611;BME280;46439;51.164;13.572;2023-09-12T00:08:24;99468.16;;;20.68;100.00
60611;BME280;46439;51.164;13.572;2023-09-12T00:11:02;99469.61;;;20.57;100.00
60611;BME280;46439;51.164;13.572;2023-09-12T00:13:31;99468.90;;;20.53;100.00
60611;BME280;46439;51.164;13.572;2023-09-12T00:15:59;99473.13;;;20.54;100.00
60611;BME280;46439;51.164;13.572;2023-09-12T00:18:29;99472.35;;;20.53;100.00
60611;BME280;46439;51.164;13.572;2023-09-12T00:20:57;99476.77;;;20.51;100.00
60611;BME280;46439;51.164;13.572;2023-09-12T00:23:29;99477.70;;;20.47;100.00
60611;BME280;46439;51.164;13.572;2023-09-12T00:25:58;99473.95;;;20.42;100.00
60611;BME280;46439;51.164;13.572;2023-09-12T00:28:27;99474.34;;;20.37;100.00
60611;BME280;46439;51.164;13.572;2023-09-12T00:30:55;99472.46;;;20.35;100.00
60611;BME280;46439;51.164;13.572;2023-09-12T00:33:24;99468.34;;;20.35;100.00
60611;BME280;46439;51.164;13.572;2023-09-12T00:35:52;99471.07;;;20.34;100.00
60611;BME280;46439;51.164;13.572;2023-09-12T00:38:21;99465.17;;;20.31;100.00
60611;BME280;46439;51.164;13.572;2023-09-12T00:40:49;99462.69;;;20.26;100.00
60611;BME280;46439;51.164;13.572;2023-09-12T00:43:18;99463.48;;;20.19;100.00
60611;BME280;46439;51.164;13.572;2023-09-12T00:45:46;99459.70;;;20.11;100.00
60611;BME280;46439;51.164;13.572;2023-09-12T00:48:16;99464.03;;;20.07;100.00
60611;BME280;46439;51.164;13.572;2023-09-12T00:50:46;99462.04;;;20.05;100.00
60611;BME280;46439;51.164;13.572;2023-09-12T00:53:16;99465.34;;;20.05;100.00
60611;BME280;46439;51.164;13.572;2023-09-12T00:55:50;99461.41;;;20.07;100.00
60611;BME280;46439;51.164;13.572;2023-09-12T00:58:22;99465.44;;;20.06;100.00
60611;BME280;46439;51.164;13.572;2023-09-12T01:00:50;99462.67;;;20.03;100.00
60611;BME280;46439;51.164;13.572;2023-09-12T01:03:19;99461.48;;;19.96;100.00
60611;BME280;46439;51.164;13.572;2023-09-12T01:05:49;99462.82;;;19.90;100.00
60611;BME280;46439;51.164;13.572;2023-09-12T01:08:17;99467.55;;;19.87;100.00
60611;BME280;46439;51.164;13.572;2023-09-12T01:10:47;99464.77;;;19.89;100.00
60611;BME280;46439;51.164;13.572;2023-09-12T01:13:18;99465.13;;;19.90;100.00
60611;BME280;46439;51.164;13.572;2023-09-12T01:15:46;99458.55;;;19.90;100.00
60611;BME280;46439;51.164;13.572;2023-09-12T01:18:15;99461.27;;;19.92;100.00
60611;BME280;46439;51.164;13.572;2023-09-12T01:20:59;99461.90;;;19.87;100.00
60611;BME280;46439;51.164;13.572;2023-09-12T01:23:45;99461.12;;;19.98;100.00
60611;BME280;46439;51.164;13.572;2023-09-12T01:26:29;99466.48;;;20.01;100.00
60611;BME280;46439;51.164;13.572;2023-09-12T01:28:58;99460.85;;;20.03;100.00
60611;BME280;46439;51.164;13.572;2023-09-12T01:31:28;99461.29;;;20.02;100.00
60611;BME280;46439;51.164;13.572;2023-09-12T01:33:58;99461.25;;;20.00;100.00
60611;BME280;46439;51.164;13.572;2023-09-12T01:36:36;99464.96;;;19.99;100.00
60611;BME280;46439;51.164;13.572;2023-09-12T01:39:13;99459.95;;;19.93;100.00
60611;BME280;46439;51.164;13.572;2023-09-12T01:41:45;99459.97;;;19.90;100.00
60611;BME280;46439;51.164;13.572;2023-09-12T01:44:15;99457.81;;;19.85;100.00
60611;BME280;46439;51.164;13.572;2023-09-12T01:46:45;99459.36;;;19.83;100.00
60611;BME280;46439;51.164;13.572;2023-09-12T01:49:17;99458.38;;;19.82;100.00
60611;BME280;46439;51.164;13.572;2023-09-12T01:51:46;99462.08;;;19.81;100.00
60611;BME280;46439;51.164;13.572;2023-09-12T01:54:15;99461.87;;;19.81;100.00
60611;BME280;46439;51.164;13.572;2023-09-12T01:56:44;99460.90;;;19.79;100.00
60611;BME280;46439;51.164;13.572;2023-09-12T01:59:13;99463.09;;;19.74;100.00
60611;BME280;46439;51.164;13.572;2023-09-12T02:01:42;99462.11;;;19.72;100.00
60611;BME280;46439;51.164;13.572;2023-09-12T02:04:11;99468.02;;;19.70;100.00
60611;BME280;46439;51.164;13.572;2023-09-12T02:06:39;99468.32;;;19.68;100.00
60611;BME280;46439;51.164;13.572;2023-09-12T02:09:08;99465.96;;;19.65;100.00
60611;BME280;46439;51.164;13.572;2023-09-12T02:11:36;99463.96;;;19.66;100.00
60611;BME280;46439;51.164;13.572;2023-09-12T02:14:05;99463.19;;;19.66;100.00
60611;BME280;46439;51.164;13.572;2023-09-12T02:16:37;99460.55;;;19.65;100.00
60611;BME280;46439;51.164;13.572;2023-09-12T02:19:08;99457.31;;;19.64;100.00
60611;BME280;46439;51.164;13.572;2023-09-12T02:21:36;99454.67;;;19.63;100.00
60611;BME280;46439;51.164;13.572;2023-09-12T02:24:06;99456.38;;;19.64;100.00
60611;BME280;46439;51.164;13.572;2023-09-12T02:26:35;99454.92;;;19.65;100.00
60611;BME280;46439;51.164;13.572;2023-09-12T02:29:04;99457.88;;;19.65;100.00
60611;BME280;46439;51.164;13.572;2023-09-12T02:31:34;99457.40;;;19.67;100.00
60611;BME280;46439;51.164;13.572;2023-09-12T02:34:03;99456.73;;;19.66;100.00
60611;BME280;46439;51.164;13.572;2023-09-12T02:36:31;99454.85;;;19.66;100.00
60611;BME280;46439;51.164;13.572;2023-09-12T02:39:00;99455.30;;;19.65;100.00
60611;BME280;46439;51.164;13.572;2023-09-12T02:41:28;99459.05;;;19.63;100.00
60611;BME280;46439;51.164;13.572;2023-09-12T02:43:57;99457.44;;;19.62;100.00
60611;BME280;46439;51.164;13.572;2023-09-12T02:46:26;99459.23;;;19.62;100.00
60611;BME280;46439;51.164;13.572;2023-09-12T02:48:54;99458.39;;;19.59;100.00
60611;BME280;46439;51.164;13.572;2023-09-12T02:51:23;99461.21;;;19.54;100.00
60611;BME280;46439;51.164;13.572;2023-09-12T02:53:52;99459.74;;;19.51;100.00
60611;BME280;46439;51.164;13.572;2023-09-12T02:56:21;99458.45;;;19.49;100.00
60611;BME280;46439;51.164;13.572;2023-09-12T02:58:50;99459.80;;;19.44;100.00
60611;BME280;46439;51.164;13.572;2023-09-12T03:01:19;99463.29;;;19.40;100.00
60611;BME280;46439;51.164;13.572;2023-09-12T03:03:48;99462.33;;;19.38;100.00
60611;BME280;46439;51.164;13.572;2023-09-12T03:06:17;99461.98;;;19.37;100.00
60611;BME280;46439;51.164;13.572;2023-09-12T03:08:46;99455.98;;;19.35;100.00
60611;BME280;46439;51.164;13.572;2023-09-12T03:11:15;99458.09;;;19.30;100.00
60611;BME280;46439;51.164;13.572;2023-09-12T03:13:44;99455.98;;;19.22;100.00
60611;BME280;46439;51.164;13.572;2023-09-12T03:16:13;99460.11;;;19.15;100.00
60611;BME280;46439;51.164;13.572;2023-09-12T03:18:42;99459.77;;;19.10;100.00
60611;BME280;46439;51.164;13.572;2023-09-12T03:21:11;99458.53;;;19.08;100.00
60611;BME280;46439;51.164;13.572;2023-09-12T03:23:39;99455.20;;;19.05;100.00
60611;BME280;46439;51.164;13.572;2023-09-12T03:26:08;99451.41;;;19.05;100.00
60611;BME280;46439;51.164;13.572;2023-09-12T03:28:36;99445.86;;;19.03;100.00
60611;BME280;46439;51.164;13.572;2023-09-12T03:31:10;99442.83;;;19.01;100.00
60611;BME280;46439;51.164;13.572;2023-09-12T03:33:42;99437.98;;;18.99;100.00
60611;BME280;46439;51.164;13.572;2023-09-12T03:36:16;99437.13;;;18.98;100.00
60611;BME280;46439;51.164;13.572;2023-09-12T03:38:48;99438.89;;;18.95;100.00
60611;BME280;46439;51.164;13.572;2023-09-12T03:41:16;99437.67;;;18.94;100.00
60611;BME280;46439;51.164;13.572;2023-09-12T03:43:45;99439.44;;;18.93;100.00
60611;BME280;46439;51.164;13.572;2023-09-12T03:46:14;99437.00;;;18.91;100.00
60611;BME280;46439;51.164;13.572;2023-09-12T03:48:43;99434.21;;;18.88;100.00
60611;BME280;46439;51.164;13.572;2023-09-12T03:51:12;99433.59;;;18.86;100.00
60611;BME280;46439;51.164;13.572;2023-09-12T03:53:40;99438.92;;;18.84;100.00
60611;BME280;46439;51.164;13.572;2023-09-12T03:56:09;99439.81;;;18.82;100.00
60611;BME280;46439;51.164;13.572;2023-09-12T03:58:40;99443.11;;;18.79;100.00
60611;BME280;46439;51.164;13.572;2023-09-12T04:01:09;99445.20;;;18.79;100.00
60611;BME280;46439;51.164;13.572;2023-09-12T04:03:37;99450.30;;;18.78;100.00
60611;BME280;46439;51.164;13.572;2023-09-12T04:06:06;99453.36;;;18.80;100.00
60611;BME280;46439;51.164;13.572;2023-09-12T04:08:34;99454.55;;;18.71;100.00
60611;BME280;46439;51.164;13.572;2023-09-12T04:11:03;99451.89;;;18.78;100.00
60611;BME280;46439;51.164;13.572;2023-09-12T04:13:31;99448.77;;;18.77;100.00
60611;BME280;46439;51.164;13.572;2023-09-12T04:16:00;99449.96;;;18.74;100.00
60611;BME280;46439;51.164;13.572;2023-09-12T04:18:29;99450.75;;;18.66;100.00
60611;BME280;46439;51.164;13.572;2023-09-12T04:20:57;99450.10;;;18.55;100.00
60611;BME280;46439;51.164;13.572;2023-09-12T04:23:26;99457.73;;;18.48;100.00
60611;BME280;46439;51.164;13.572;2023-09-12T04:25:55;99455.55;;;18.46;100.00
60611;BME280;46439;51.164;13.572;2023-09-12T04:28:23;99450.04;;;18.44;100.00
60611;BME280;46439;51.164;13.572;2023-09-12T04:31:02;99446.09;;;18.43;100.00
60611;BME280;46439;51.164;13.572;2023-09-12T04:33:31;99442.77;;;18.44;100.00
60611;BME280;46439;51.164;13.572;2023-09-12T04:36:02;99446.69;;;18.47;100.00
60611;BME280;46439;51.164;13.572;2023-09-12T04:38:31;99446.10;;;18.47;100.00
60611;BME280;46439;51.164;13.572;2023-09-12T04:41:03;99450.79;;;18.46;100.00
60611;BME280;46439;51.164;13.572;2023-09-12T04:43:34;99447.11;;;18.48;100.00
60611;BME280;46439;51.164;13.572;2023-09-12T04:46:02;99446.29;;;18.48;100.00
60611;BME280;46439;51.164;13.572;2023-09-12T04:48:31;99446.08;;;18.48;100.00
60611;BME280;46439;51.164;13.572;2023-09-12T04:51:00;99444.35;;;18.47;100.00
60611;BME280;46439;51.164;13.572;2023-09-12T04:53:28;99444.66;;;18.46;100.00
60611;BME280;46439;51.164;13.572;2023-09-12T04:56:03;99446.23;;;18.44;100.00
60611;BME280;46439;51.164;13.572;2023-09-12T04:58:32;99441.46;;;18.41;100.00
60611;BME280;46439;51.164;13.572;2023-09-12T05:01:00;99440.99;;;18.40;100.00
60611;BME280;46439;51.164;13.572;2023-09-12T05:03:29;99440.53;;;18.38;100.00
60611;BME280;46439;51.164;13.572;2023-09-12T05:05:57;99439.84;;;18.37;100.00
60611;BME280;46439;51.164;13.572;2023-09-12T05:08:27;99433.73;;;18.38;100.00
60611;BME280;46439;51.164;13.572;2023-09-12T05:10:55;99431.44;;;18.40;100.00
60611;BME280;46439;51.164;13.572;2023-09-12T05:13:24;99431.62;;;18.41;100.00
60611;BME280;46439;51.164;13.572;2023-09-12T05:15:53;99430.41;;;18.41;100.00
60611;BME280;46439;51.164;13.572;2023-09-12T05:18:21;99435.16;;;18.43;100.00
60611;BME280;46439;51.164;13.572;2023-09-12T05:20:50;99440.67;;;18.43;100.00
60611;BME280;46439;51.164;13.572;2023-09-12T05:23:19;99444.98;;;18.40;100.00
60611;BME280;46439;51.164;13.572;2023-09-12T05:25:47;99443.59;;;18.41;100.00
60611;BME280;46439;51.164;13.572;2023-09-12T05:28:16;99439.50;;;18.45;100.00
60611;BME280;46439;51.164;13.572;2023-09-12T05:30:45;99436.88;;;18.48;100.00
60611;BME280;46439;51.164;13.572;2023-09-12T05:33:15;99436.45;;;18.50;100.00
60611;BME280;46439;51.164;13.572;2023-09-12T05:35:44;99439.52;;;18.54;100.00
60611;BME280;46439;51.164;13.572;2023-09-12T05:38:13;99440.89;;;18.57;100.00
60611;BME280;46439;51.164;13.572;2023-09-12T05:40:41;99445.88;;;18.57;100.00
60611;BME280;46439;51.164;13.572;2023-09-12T05:43:10;99446.88;;;18.56;100.00
60611;BME280;46439;51.164;13.572;2023-09-12T05:45:38;99446.36;;;18.54;100.00
60611;BME280;46439;51.164;13.572;2023-09-12T05:48:07;99450.83;;;18.56;100.00
60611;BME280;46439;51.164;13.572;2023-09-12T05:50:37;99446.90;;;18.60;100.00
60611;BME280;46439;51.164;13.572;2023-09-12T05:53:07;99450.60;;;18.64;100.00
60611;BME280;46439;51.164;13.572;2023-09-12T05:55:36;99447.77;;;18.69;100.00
60611;BME280;46439;51.164;13.572;2023-09-12T05:58:04;99451.02;;;18.72;100.00
60611;BME280;46439;51.164;13.572;2023-09-12T06:00:34;99453.17;;;18.77;100.00
60611;BME280;46439;51.164;13.572;2023-09-12T06:03:03;99456.16;;;18.82;100.00
60611;BME280;46439;51.164;13.572;2023-09-12T06:05:31;99461.23;;;18.87;100.00
60611;BME280;46439;51.164;13.572;2023-09-12T06:08:01;99466.35;;;18.92;100.00
60611;BME280;46439;51.164;13.572;2023-09-12T06:10:29;99463.67;;;18.95;100.00
60611;BME280;46439;51.164;13.572;2023-09-12T06:12:58;99465.02;;;18.98;100.00
60611;BME280;46439;51.164;13.572;2023-09-12T06:15:27;99466.67;;;19.01;100.00
60611;BME280;46439;51.164;13.572;2023-09-12T06:17:55;99467.68;;;19.05;100.00
60611;BME280;46439;51.164;13.572;2023-09-12T06:20:24;99472.98;;;19.11;100.00
60611;BME280;46439;51.164;13.572;2023-09-12T06:22:53;99472.47;;;19.16;100.00
60611;BME280;46439;51.164;13.572;2023-09-12T06:25:21;99469.16;;;19.21;100.00
60611;BME280;46439;51.164;13.572;2023-09-12T06:27:50;99464.77;;;19.28;100.00
60611;BME280;46439;51.164;13.572;2023-09-12T06:30:19;99465.83;;;19.34;100.00
60611;BME280;46439;51.164;13.572;2023-09-12T06:32:47;99467.98;;;19.39;100.00
60611;BME280;46439;51.164;13.572;2023-09-12T06:35:17;99466.98;;;19.45;100.00
60611;BME280;46439;51.164;13.572;2023-09-12T06:37:45;99463.56;;;19.50;100.00
60611;BME280;46439;51.164;13.572;2023-09-12T06:40:16;99466.70;;;19.59;100.00
60611;BME280;46439;51.164;13.572;2023-09-12T06:42:44;99467.54;;;19.64;100.00
60611;BME280;46439;51.164;13.572;2023-09-12T06:45:13;99470.45;;;19.70;100.00
60611;BME280;46439;51.164;13.572;2023-09-12T06:47:42;99469.16;;;19.68;100.00
60611;BME280;46439;51.164;13.572;2023-09-12T06:50:11;99467.13;;;19.77;100.00
60611;BME280;46439;51.164;13.572;2023-09-12T06:52:39;99463.84;;;19.78;100.00
60611;BME280;46439;51.164;13.572;2023-09-12T06:55:08;99467.70;;;19.86;100.00
60611;BME280;46439;51.164;13.572;2023-09-12T06:57:37;99462.20;;;19.92;100.00
60611;BME280;46439;51.164;13.572;2023-09-12T07:00:08;99456.56;;;19.97;100.00
60611;BME280;46439;51.164;13.572;2023-09-12T07:02:37;99449.77;;;20.02;100.00
60611;BME280;46439;51.164;13.572;2023-09-12T07:05:07;99444.73;;;20.18;100.00
60611;BME280;46439;51.164;13.572;2023-09-12T07:07:36;99449.17;;;20.27;100.00
60611;BME280;46439;51.164;13.572;2023-09-12T07:10:05;99445.63;;;20.34;100.00
60611;BME280;46439;51.164;13.572;2023-09-12T07:12:34;99442.64;;;20.35;100.00
60611;BME280;46439;51.164;13.572;2023-09-12T07:15:04;99441.34;;;20.51;100.00
60611;BME280;46439;51.164;13.572;2023-09-12T07:17:33;99439.33;;;20.61;100.00
60611;BME280;46439;51.164;13.572;2023-09-12T07:20:01;99441.79;;;20.68;100.00
60611;BME280;46439;51.164;13.572;2023-09-12T07:22:30;99442.38;;;20.72;100.00
60611;BME280;46439;51.164;13.572;2023-09-12T07:25:01;99440.98;;;20.72;100.00
60611;BME280;46439;51.164;13.572;2023-09-12T07:27:31;99434.70;;;20.80;100.00
60611;BME280;46439;51.164;13.572;2023-09-12T07:29:59;99432.66;;;20.83;100.00
60611;BME280;46439;51.164;13.572;2023-09-12T07:32:28;99430.81;;;20.90;100.00
60611;BME280;46439;51.164;13.572;2023-09-12T07:34:57;99430.83;;;20.98;100.00
60611;BME280;46439;51.164;13.572;2023-09-12T07:37:25;99434.25;;;21.06;100.00
60611;BME280;46439;51.164;13.572;2023-09-12T07:39:54;99433.52;;;21.15;100.00
60611;BME280;46439;51.164;13.572;2023-09-12T07:42:24;99430.55;;;21.30;100.00
60611;BME280;46439;51.164;13.572;2023-09-12T07:44:53;99427.73;;;21.35;100.00
60611;BME280;46439;51.164;13.572;2023-09-12T07:47:21;99420.81;;;21.54;100.00
60611;BME280;46439;51.164;13.572;2023-09-12T07:49:55;99418.02;;;21.69;100.00
60611;BME280;46439;51.164;13.572;2023-09-12T07:52:25;99419.57;;;21.82;100.00
60611;BME280;46439;51.164;13.572;2023-09-12T07:54:54;99428.29;;;21.79;100.00
60611;BME280;46439;51.164;13.572;2023-09-12T07:57:27;99432.70;;;21.81;100.00
60611;BME280;46439;51.164;13.572;2023-09-12T07:59:56;99432.23;;;21.86;100.00
60611;BME280;46439;51.164;13.572;2023-09-12T08:02:25;99431.84;;;21.95;100.00
60611;BME280;46439;51.164;13.572;2023-09-12T08:04:54;99428.81;;;22.07;100.00
60611;BME280;46439;51.164;13.572;2023-09-12T08:07:22;99429.39;;;22.24;100.00
60611;BME280;46439;51.164;13.572;2023-09-12T08:09:53;99424.45;;;22.35;100.00
60611;BME280;46439;51.164;13.572;2023-09-12T08:12:24;99422.25;;;22.48;100.00
60611;BME280;46439;51.164;13.572;2023-09-12T08:14:53;99418.43;;;22.60;100.00
60611;BME280;46439;51.164;13.572;2023-09-12T08:17:22;99415.59;;;22.73;100.00
60611;BME280;46439;51.164;13.572;2023-09-12T08:19:51;99414.30;;;22.83;100.00
60611;BME280;46439;51.164;13.572;2023-09-12T08:22:19;99410.89;;;22.92;100.00
60611;BME280;46439;51.164;13.572;2023-09-12T08:24:48;99411.72;;;23.01;100.00
60611;BME280;46439;51.164;13.572;2023-09-12T08:27:17;99409.11;;;23.10;100.00
60611;BME280;46439;51.164;13.572;2023-09-12T08:29:46;99404.81;;;23.20;100.00
60611;BME280;46439;51.164;13.572;2023-09-12T08:32:16;99404.92;;;23.30;100.00
60611;BME280;46439;51.164;13.572;2023-09-12T08:34:45;99402.50;;;23.41;100.00
60611;BME280;46439;51.164;13.572;2023-09-12T08:37:13;99401.27;;;23.51;100.00
60611;BME280;46439;51.164;13.572;2023-09-12T08:39:46;99399.86;;;23.63;100.00
60611;BME280;46439;51.164;13.572;2023-09-12T08:42:15;99399.19;;;23.74;100.00
60611;BME280;46439;51.164;13.572;2023-09-12T08:44:44;99394.94;;;23.83;100.00
60611;BME280;46439;51.164;13.572;2023-09-12T08:47:17;99384.27;;;23.92;100.00
60611;BME280;46439;51.164;13.572;2023-09-12T08:49:55;99384.34;;;24.03;100.00
60611;BME280;46439;51.164;13.572;2023-09-12T08:52:37;99381.92;;;24.14;100.00
60611;BME280;46439;51.164;13.572;2023-09-12T08:55:17;99380.33;;;24.26;100.00
60611;BME280;46439;51.164;13.572;2023-09-12T08:57:56;99379.11;;;24.38;100.00
60611;BME280;46439;51.164;13.572;2023-09-12T09:00:28;99378.23;;;24.48;100.00
60611;BME280;46439;51.164;13.572;2023-09-12T09:02:57;99370.14;;;24.57;100.00
60611;BME280;46439;51.164;13.572;2023-09-12T09:05:28;99362.77;;;24.68;100.00
60611;BME280;46439;51.164;13.572;2023-09-12T09:07:57;99364.87;;;24.77;100.00
60611;BME280;46439;51.164;13.572;2023-09-12T09:10:27;99361.45;;;24.82;100.00
60611;BME280;46439;51.164;13.572;2023-09-12T09:13:00;99361.23;;;24.89;100.00
60611;BME280;46439;51.164;13.572;2023-09-12T09:15:29;99363.78;;;25.03;100.00
60611;BME280;46439;51.164;13.572;2023-09-12T09:17:59;99356.08;;;25.13;100.00
60611;BME280;46439;51.164;13.572;2023-09-12T09:20:33;99352.57;;;25.23;100.00
60611;BME280;46439;51.164;13.572;2023-09-12T09:23:07;99351.70;;;25.34;100.00
60611;BME280;46439;51.164;13.572;2023-09-12T09:25:39;99348.58;;;25.44;100.00
60611;BME280;46439;51.164;13.572;2023-09-12T09:28:18;99348.48;;;25.52;100.00
60611;BME280;46439;51.164;13.572;2023-09-12T09:30:48;99345.51;;;25.61;100.00
60611;BME280;46439;51.164;13.572;2023-09-12T09:33:17;99343.84;;;25.72;100.00
60611;BME280;46439;51.164;13.572;2023-09-12T09:35:47;99342.08;;;25.81;100.00
60611;BME280;46439;51.164;13.572;2023-09-12T09:38:19;99338.88;;;25.90;100.00
60611;BME280;46439;51.164;13.572;2023-09-12T09:40:49;99335.12;;;26.00;100.00
60611;BME280;46439;51.164;13.572;2023-09-12T09:43:22;99334.66;;;26.10;100.00
60611;BME280;46439;51.164;13.572;2023-09-12T09:45:51;99334.22;;;26.18;100.00
60611;BME280;46439;51.164;13.572;2023-09-12T09:48:23;99333.52;;;26.25;100.00
60611;BME280;46439;51.164;13.572;2023-09-12T09:50:52;99329.01;;;26.38;100.00
60611;BME280;46439;51.164;13.572;2023-09-12T09:53:23;99323.65;;;26.53;100.00
60611;BME280;46439;51.164;13.572;2023-09-12T09:55:54;99318.97;;;26.63;100.00
60611;BME280;46439;51.164;13.572;2023-09-12T09:58:35;99320.19;;;26.74;100.00
60611;BME280;46439;51.164;13.572;2023-09-12T10:01:07;99322.95;;;26.81;100.00
60611;BME280;46439;51.164;13.572;2023-09-12T10:03:38;99322.02;;;26.87;100.00
60611;BME280;46439;51.164;13.572;2023-09-12T10:06:08;99323.92;;;26.93;100.00
60611;BME280;46439;51.164;13.572;2023-09-12T10:08:39;99328.45;;;27.00;100.00
60611;BME280;46439;51.164;13.572;2023-09-12T10:11:09;99330.63;;;27.06;100.00
60611;BME280;46439;51.164;13.572;2023-09-12T10:13:39;99332.05;;;27.13;100.00
60611;BME280;46439;51.164;13.572;2023-09-12T10:16:11;99327.20;;;27.21;100.00
60611;BME280;46439;51.164;13.572;2023-09-12T10:18:48;99325.13;;;27.33;100.00
60611;BME280;46439;51.164;13.572;2023-09-12T10:21:24;99324.07;;;27.43;100.00
60611;BME280;46439;51.164;13.572;2023-09-12T10:23:56;99319.80;;;27.57;100.00
60611;BME280;46439;51.164;13.572;2023-09-12T10:26:26;99315.58;;;27.65;100.00
60611;BME280;46439;51.164;13.572;2023-09-12T10:28:55;99314.89;;;27.75;100.00
60611;BME280;46439;51.164;13.572;2023-09-12T10:31:26;99314.33;;;27.86;100.00
60611;BME280;46439;51.164;13.572;2023-09-12T10:33:55;99312.45;;;27.97;100.00
60611;BME280;46439;51.164;13.572;2023-09-12T10:36:23;99310.84;;;28.05;100.00
60611;BME280;46439;51.164;13.572;2023-09-12T10:38:56;99311.55;;;28.11;100.00
60611;BME280;46439;51.164;13.572;2023-09-12T10:41:27;99312.93;;;28.16;100.00
60611;BME280;46439;51.164;13.572;2023-09-12T10:43:58;99311.56;;;28.23;100.00
60611;BME280;46439;51.164;13.572;2023-09-12T10:46:28;99309.15;;;28.29;100.00
60611;BME280;46439;51.164;13.572;2023-09-12T10:48:57;99309.14;;;28.38;100.00
60611;BME280;46439;51.164;13.572;2023-09-12T10:51:25;99305.97;;;28.48;100.00
60611;BME280;46439;51.164;13.572;2023-09-12T10:53:54;99298.45;;;28.59;100.00
60611;BME280;46439;51.164;13.572;2023-09-12T10:56:23;99296.16;;;28.63;100.00
60611;BME280;46439;51.164;13.572;2023-09-12T10:59:16;99293.98;;;28.71;100.00
60611;BME280;46439;51.164;13.572;2023-09-12T11:01:45;99293.66;;;28.79;100.00
60611;BME280;46439;51.164;13.572;2023-09-12T11:04:32;99291.20;;;28.95;100.00
60611;BME280;46439;51.164;13.572;2023-09-12T11:07:02;99285.69;;;29.00;100.00
60611;BME280;46439;51.164;13.572;2023-09-12T11:10:22;99285.37;;;29.09;100.00
60611;BME280;46439;51.164;13.572;2023-09-12T11:12:51;99281.15;;;29.21;100.00
60611;BME280;46439;51.164;13.572;2023-09-12T11:15:22;99277.80;;;29.25;100.00
60611;BME280;46439;51.164;13.572;2023-09-12T11:18:01;99272.16;;;29.36;100.00
60611;BME280;46439;51.164;13.572;2023-09-12T11:20:52;99275.63;;;29.45;100.00
60611;BME280;46439;51.164;13.572;2023-09-12T11:23:22;99267.88;;;29.56;100.00
60611;BME280;46439;51.164;13.572;2023-09-12T11:26:04;99262.43;;;29.70;100.00
60611;BME280;46439;51.164;13.572;2023-09-12T11:28:36;99257.41;;;29.82;100.00
60611;BME280;46439;51.164;13.572;2023-09-12T11:31:05;99257.55;;;29.94;100.00
60611;BME280;46439;51.164;13.572;2023-09-12T11:33:34;99258.79;;;30.05;100.00
60611;BME280;46439;51.164;13.572;2023-09-12T11:36:03;99259.45;;;30.11;100.00
60611;BME280;46439;51.164;13.572;2023-09-12T11:38:37;99257.58;;;30.11;100.00
60611;BME280;46439;51.164;13.572;2023-09-12T11:41:05;99255.84;;;30.15;100.00
60611;BME280;46439;51.164;13.572;2023-09-12T11:43:34;99252.98;;;30.22;100.00
60611;BME280;46439;51.164;13.572;2023-09-12T11:46:07;99245.09;;;30.35;100.00
60611;BME280;46439;51.164;13.572;2023-09-12T11:48:37;99241.23;;;30.46;100.00
60611;BME280;46439;51.164;13.572;2023-09-12T11:51:08;99239.64;;;30.59;100.00
60611;BME280;46439;51.164;13.572;2023-09-12T11:53:37;99241.23;;;30.63;100.00
60611;BME280;46439;51.164;13.572;2023-09-12T11:56:06;99237.35;;;30.71;100.00
60611;BME280;46439;51.164;13.572;2023-09-12T11:58:36;99237.37;;;30.87;100.00
60611;BME280;46439;51.164;13.572;2023-09-12T12:01:08;99235.16;;;30.98;100.00
60611;BME280;46439;51.164;13.572;2023-09-12T12:03:40;99234.73;;;31.04;100.00
60611;BME280;46439;51.164;13.572;2023-09-12T12:06:09;99234.73;;;30.94;100.00
60611;BME280;46439;51.164;13.572;2023-09-12T12:08:38;99227.91;;;30.93;100.00
60611;BME280;46439;51.164;13.572;2023-09-12T12:11:08;99226.52;;;30.98;100.00
60611;BME280;46439;51.164;13.572;2023-09-12T12:13:36;99227.64;;;31.01;100.00
60611;BME280;46439;51.164;13.572;2023-09-12T12:16:17;99225.31;;;31.01;100.00
60611;BME280;46439;51.164;13.572;2023-09-12T12:18:47;99221.70;;;31.11;100.00
60611;BME280;46439;51.164;13.572;2023-09-12T12:21:24;99218.56;;;31.22;100.00
60611;BME280;46439;51.164;13.572;2023-09-12T12:24:01;99220.84;;;31.26;100.00
60611;BME280;46439;51.164;13.572;2023-09-12T12:26:31;99220.09;;;31.25;100.00
60611;BME280;46439;51.164;13.572;2023-09-12T12:29:00;99220.89;;;31.31;100.00
60611;BME280;46439;51.164;13.572;2023-09-12T12:31:29;99220.47;;;31.36;100.00
60611;BME280;46439;51.164;13.572;2023-09-12T12:33:58;99221.66;;;31.40;100.00
60611;BME280;46439;51.164;13.572;2023-09-12T12:36:28;99220.25;;;31.40;100.00
60611;BME280;46439;51.164;13.572;2023-09-12T12:38:57;99221.06;;;31.48;100.00
60611;BME280;46439;51.164;13.572;2023-09-12T12:41:28;99219.30;;;31.53;100.00
60611;BME280;46439;51.164;13.572;2023-09-12T12:43:58;99218.05;;;31.52;100.00
60611;BME280;46439;51.164;13.572;2023-09-12T12:46:29;99213.52;;;31.54;100.00
60611;BME280;46439;51.164;13.572;2023-09-12T12:48:58;99209.76;;;31.52;100.00
60611;BME280;46439;51.164;13.572;2023-09-12T12:51:27;99211.17;;;31.54;100.00
60611;BME280;46439;51.164;13.572;2023-09-12T12:54:05;99208.67;;;31.57;100.00
60611;BME280;46439;51.164;13.572;2023-09-12T12:56:35;99207.93;;;31.66;100.00